Time;durP1;ratioP1;P1;durP2;ratioP2;P2;SDS_P1;SDS_P2;PMS_P1;PMS_P2;Temp;Humidity;BMP_temperature;BMP_pressure;BME280_temperature;BME280_humidity;BME280_pressure;Samples;Min_cycle;Max_cycle;Signal;HPM_P1;HPM_P2
2022/06/14 00:03:06;;;;;;;27.83;26.00;;;15.40;77.90;;;;;;4970111;28;20470;-71
2022/06/14 00:05:33;;;;;;;27.37;25.80;;;15.40;77.70;;;;;;4963050;28;22315;-72
2022/06/14 00:08:00;;;;;;;28.07;26.20;;;15.40;77.90;;;;;;4969577;28;20533;-70
2022/06/14 00:10:27;;;;;;;26.83;25.33;;;15.30;77.70;;;;;;4972408;28;21028;-70
2022/06/14 00:12:54;;;;;;;29.30;27.50;;;15.20;77.90;;;;;;4969664;28;20593;-71
2022/06/14 00:15:23;;;;;;;27.90;26.23;;;15.10;78.20;;;;;;4968242;28;20900;-74
2022/06/14 00:17:50;;;;;;;28.80;26.93;;;15.00;78.60;;;;;;4970876;28;20486;-71
2022/06/14 00:20:17;;;;;;;29.00;27.20;;;15.00;78.70;;;;;;4970947;28;20459;-71
2022/06/14 00:22:43;;;;;;;28.40;26.33;;;14.90;79.60;;;;;;4972752;28;20557;-71
2022/06/14 00:25:24;;;;;;;28.00;26.20;;;14.90;79.60;;;;;;4970243;28;20894;-71
2022/06/14 00:27:52;;;;;;;28.87;26.80;;;14.90;79.70;;;;;;4969059;28;20484;-72
2022/06/14 00:30:20;;;;;;;27.80;26.07;;;14.90;79.40;;;;;;4975202;28;20547;-71
2022/06/14 00:32:49;;;;;;;29.00;27.00;;;14.90;78.90;;;;;;4974490;28;20470;-72
2022/06/14 00:35:16;;;;;;;27.40;25.70;;;14.80;79.30;;;;;;4969590;28;20545;-71
2022/06/14 00:37:43;;;;;;;29.07;27.37;;;14.70;79.70;;;;;;4970442;28;20582;-71
2022/06/14 00:40:13;;;;;;;28.53;26.60;;;14.60;79.90;;;;;;4970817;28;21019;-71
2022/06/14 00:42:40;;;;;;;28.30;26.40;;;14.60;80.20;;;;;;4964940;28;20502;-71
2022/06/14 00:45:29;;;;;;;28.33;26.53;;;14.50;81.00;;;;;;4958562;28;20459;-71
2022/06/14 00:48:02;;;;;;;29.27;27.00;;;14.60;80.60;;;;;;4964712;28;20470;-71
2022/06/14 00:50:32;;;;;;;28.80;26.60;;;14.60;80.20;;;;;;4968185;28;20502;-71
2022/06/14 00:53:05;;;;;;;27.47;25.87;;;14.50;80.30;;;;;;4977742;28;20489;-71
2022/06/14 00:55:37;;;;;;;27.67;25.87;;;14.50;80.60;;;;;;4969009;28;21012;-71
2022/06/14 00:58:10;;;;;;;26.63;25.03;;;14.50;80.50;;;;;;4970224;28;20482;-71
2022/06/14 01:00:46;;;;;;;27.97;26.13;;;14.50;81.30;;;;;;4956036;28;20474;-71
2022/06/14 01:03:19;;;;;;;26.63;25.13;;;14.50;81.10;;;;;;4975916;28;20963;-71
2022/06/14 01:06:08;;;;;;;27.80;26.17;;;14.50;81.00;;;;;;4972226;28;20573;-71
2022/06/14 01:08:38;;;;;;;28.83;26.83;;;14.50;81.20;;;;;;4959421;28;20557;-73
2022/06/14 01:11:09;;;;;;;27.87;26.17;;;14.50;80.80;;;;;;4961589;28;20547;-70
2022/06/14 01:13:38;;;;;;;28.47;26.40;;;14.40;80.70;;;;;;4977305;28;20481;-71
2022/06/14 01:16:06;;;;;;;27.27;25.77;;;14.30;81.10;;;;;;4965965;28;21109;-71
2022/06/14 01:18:35;;;;;;;27.27;25.67;;;14.20;81.20;;;;;;4963966;28;20483;-71
2022/06/14 01:21:02;;;;;;;26.50;24.80;;;14.20;81.30;;;;;;4974124;28;20597;-71
2022/06/14 01:23:31;;;;;;;26.73;24.80;;;14.20;82.20;;;;;;4971804;28;20570;-71
2022/06/14 01:26:09;;;;;;;28.43;26.47;;;14.20;82.30;;;;;;4967260;28;20581;-72
2022/06/14 01:28:37;;;;;;;27.63;25.83;;;14.20;81.60;;;;;;4967660;28;20550;-71
2022/06/14 01:31:05;;;;;;;25.90;24.40;;;14.00;82.00;;;;;;4974527;28;20470;-71
2022/06/14 01:33:36;;;;;;;27.73;26.03;;;14.00;81.90;;;;;;4976261;28;20555;-71
2022/06/14 01:36:08;;;;;;;27.40;25.80;;;14.00;82.10;;;;;;4963301;28;20486;-71
2022/06/14 01:38:37;;;;;;;26.80;25.10;;;14.00;82.20;;;;;;4969497;28;20482;-71
2022/06/14 01:41:10;;;;;;;27.93;26.20;;;14.00;82.10;;;;;;4972351;28;20899;-71
2022/06/14 01:43:52;;;;;;;27.10;25.40;;;14.00;82.40;;;;;;4966297;28;20475;-69
2022/06/14 01:46:23;;;;;;;27.70;25.63;;;14.00;82.50;;;;;;4964699;28;20578;-70
2022/06/14 01:51:50;;;;;;;28.20;26.37;;;14.00;82.20;;;;;;4969031;28;20463;-69
2022/06/14 01:51:59;;;;;;;27.53;25.83;;;13.90;82.60;;;;;;4968926;28;20868;-69
2022/06/14 01:54:36;;;;;;;26.60;24.90;;;13.90;82.80;;;;;;4973179;28;20442;-70
2022/06/14 01:57:10;;;;;;;27.00;25.23;;;13.90;82.70;;;;;;4961961;28;20565;-70
2022/06/14 01:59:48;;;;;;;25.87;24.50;;;13.90;82.90;;;;;;4975689;28;20565;-70
2022/06/14 02:02:26;;;;;;;26.90;25.33;;;13.90;82.80;;;;;;4974466;28;20466;-69
2022/06/14 02:05:01;;;;;;;26.40;24.67;;;13.90;82.80;;;;;;4968918;28;21047;-69
2022/06/14 02:07:35;;;;;;;27.63;25.80;;;13.90;82.60;;;;;;4964188;28;20930;-69
2022/06/14 02:10:11;;;;;;;26.47;24.67;;;13.90;82.60;;;;;;4968136;28;20463;-69
2022/06/14 02:12:48;;;;;;;26.57;24.80;;;13.90;82.60;;;;;;4962226;28;20513;-69
2022/06/14 02:15:25;;;;;;;26.87;25.07;;;13.90;82.30;;;;;;4961669;28;20553;-69
2022/06/14 02:18:00;;;;;;;27.43;25.57;;;13.90;82.40;;;;;;4966688;28;20648;-69
2022/06/14 02:20:33;;;;;;;26.73;25.00;;;13.90;82.20;;;;;;4960111;28;20459;-69
2022/06/14 02:23:11;;;;;;;27.03;25.33;;;13.90;82.10;;;;;;4977948;28;20993;-69
2022/06/14 02:25:47;;;;;;;27.27;25.30;;;13.90;82.30;;;;;;4965917;28;20466;-69
2022/06/14 02:28:19;;;;;;;28.07;26.27;;;13.80;82.30;;;;;;4967112;28;20566;-69
2022/06/14 02:30:50;;;;;;;26.27;24.67;;;13.60;82.70;;;;;;4971165;28;20463;-69
2022/06/14 02:33:22;;;;;;;26.50;24.70;;;13.50;83.00;;;;;;4967859;28;20542;-68
2022/06/14 02:35:57;;;;;;;26.77;25.13;;;13.50;83.60;;;;;;4962815;28;20597;-68
2022/06/14 02:38:33;;;;;;;26.50;24.90;;;13.50;83.70;;;;;;4966956;28;20549;-69
2022/06/14 02:41:06;;;;;;;26.80;25.03;;;13.50;83.50;;;;;;4968871;28;20458;-69
2022/06/14 02:43:39;;;;;;;26.63;24.93;;;13.60;83.40;;;;;;4966065;28;20463;-70
2022/06/14 02:46:10;;;;;;;26.97;25.30;;;13.60;83.10;;;;;;4965861;28;20832;-69
2022/06/14 02:48:43;;;;;;;27.70;25.83;;;13.50;82.90;;;;;;4963015;28;20597;-69
2022/06/14 02:51:15;;;;;;;27.50;25.67;;;13.50;82.90;;;;;;4964808;28;20550;-69
2022/06/14 02:53:49;;;;;;;28.37;26.37;;;13.40;83.30;;;;;;4977823;28;20539;-69
2022/06/14 02:56:22;;;;;;;26.93;25.10;;;13.40;83.40;;;;;;4963284;28;20561;-69
2022/06/14 02:58:54;;;;;;;26.70;24.90;;;13.40;83.60;;;;;;4966763;28;20583;-69
2022/06/14 03:01:27;;;;;;;27.80;25.97;;;13.30;83.40;;;;;;4972988;28;20573;-71
2022/06/14 03:03:57;;;;;;;27.50;25.80;;;13.20;83.40;;;;;;4975482;28;20547;-74
2022/06/14 03:06:30;;;;;;;27.40;25.70;;;13.20;83.90;;;;;;4969114;28;20488;-70
2022/06/14 03:09:01;;;;;;;29.17;27.07;;;13.20;84.00;;;;;;4975269;28;20542;-72
2022/06/14 03:11:45;;;;;;;30.40;28.60;;;13.20;84.20;;;;;;4974160;28;20466;-71
2022/06/14 03:14:26;;;;;;;29.40;27.60;;;13.30;83.70;;;;;;4977171;28;20466;-71
2022/06/14 03:17:05;;;;;;;29.23;27.43;;;13.20;83.60;;;;;;4969337;28;20482;-74
2022/06/14 03:19:43;;;;;;;29.40;27.10;;;13.10;83.80;;;;;;4975605;28;20479;-71
2022/06/14 03:22:18;;;;;;;30.87;29.00;;;13.10;84.00;;;;;;4976984;28;20462;-71
2022/06/14 03:24:51;;;;;;;29.40;26.93;;;13.10;83.90;;;;;;4976065;28;20468;-71
2022/06/14 03:27:28;;;;;;;29.63;27.57;;;13.00;84.20;;;;;;4976247;28;20698;-71
2022/06/14 03:30:03;;;;;;;29.03;27.00;;;13.00;84.50;;;;;;4968945;28;20485;-71
2022/06/14 03:32:36;;;;;;;29.27;27.00;;;13.00;84.40;;;;;;4977997;28;20562;-71
2022/06/14 03:35:07;;;;;;;28.70;26.80;;;13.00;84.70;;;;;;4974537;28;20545;-71
2022/06/14 03:37:35;;;;;;;26.40;24.60;;;13.00;84.50;;;;;;4969504;28;20854;-71
2022/06/14 03:40:06;;;;;;;30.87;28.97;;;13.10;84.20;;;;;;4972830;28;20963;-71
2022/06/14 03:42:36;;;;;;;27.97;25.70;;;13.20;83.60;;;;;;4970133;28;20486;-74
2022/06/14 03:45:04;;;;;;;28.10;26.10;;;13.10;83.60;;;;;;4979515;28;20637;-71
2022/06/14 03:47:31;;;;;;;26.37;24.73;;;13.20;84.20;;;;;;4972449;28;20518;-69
2022/06/14 03:50:03;;;;;;;28.07;26.13;;;13.20;83.70;;;;;;4974008;28;21102;-69
2022/06/14 03:53:06;;;;;;;28.73;26.93;;;13.30;83.40;;;;;;4976832;28;20487;-69
2022/06/14 03:55:58;;;;;;;26.57;25.07;;;13.40;82.80;;;;;;4975528;28;20459;-69
2022/06/14 03:58:50;;;;;;;26.90;25.40;;;13.70;81.80;;;;;;4969445;28;20510;-68
2022/06/14 04:01:21;;;;;;;29.87;27.70;;;14.20;80.80;;;;;;4973918;28;20566;-69
2022/06/14 04:04:08;;;;;;;28.87;26.97;;;14.60;79.80;;;;;;4965044;28;20463;-69
2022/06/14 04:06:50;;;;;;;30.00;28.10;;;14.80;78.50;;;;;;4972440;28;20542;-71
2022/06/14 04:09:27;;;;;;;28.93;27.13;;;14.80;78.30;;;;;;4962886;28;20483;-71
2022/06/14 04:12:02;;;;;;;29.50;27.40;;;14.70;77.90;;;;;;4964111;28;20582;-71
2022/06/14 04:14:50;;;;;;;29.00;27.20;;;14.60;78.10;;;;;;4978847;28;20533;-71
2022/06/14 04:17:22;;;;;;;29.30;27.60;;;14.50;78.30;;;;;;4972388;28;20479;-71
2022/06/14 04:20:01;;;;;;;29.67;27.67;;;14.40;78.60;;;;;;4971895;28;20588;-71
2022/06/14 04:22:41;;;;;;;28.40;26.40;;;14.30;79.00;;;;;;4976107;28;20467;-71
2022/06/14 04:25:12;;;;;;;30.10;28.10;;;14.30;79.20;;;;;;4972139;28;20458;-72
2022/06/14 04:27:47;;;;;;;29.97;28.07;;;14.20;79.50;;;;;;4964888;28;20590;-71
2022/06/14 04:30:21;;;;;;;30.73;28.73;;;14.20;79.60;;;;;;4967393;28;20542;-71
2022/06/14 04:32:55;;;;;;;30.30;28.33;;;14.20;79.40;;;;;;4972092;28;20490;-71
2022/06/14 04:35:29;;;;;;;31.20;29.00;;;14.20;79.50;;;;;;4964158;28;20533;-71
2022/06/14 04:38:01;;;;;;;29.90;28.03;;;14.50;79.30;;;;;;4971991;28;21003;-71
2022/06/14 04:40:32;;;;;;;31.80;29.83;;;14.60;78.00;;;;;;4970191;28;20585;-73
2022/06/14 04:43:04;;;;;;;29.73;27.83;;;14.70;78.10;;;;;;4963483;28;20498;-72
2022/06/14 04:45:40;;;;;;;29.97;28.17;;;14.70;77.60;;;;;;4961765;28;20559;-70
2022/06/14 04:48:11;;;;;;;29.70;27.50;;;14.70;77.80;;;;;;4955980;28;20495;-71
2022/06/14 04:50:42;;;;;;;31.30;29.20;;;14.80;77.90;;;;;;4960986;28;20550;-70
2022/06/14 04:53:14;;;;;;;30.67;28.67;;;14.80;78.00;;;;;;4966810;28;20455;-74
2022/06/14 04:55:46;;;;;;;30.37;27.93;;;14.80;78.20;;;;;;4972687;28;20601;-71
2022/06/14 04:58:17;;;;;;;28.60;26.90;;;14.90;78.60;;;;;;4968141;28;20478;-72
2022/06/14 05:00:50;;;;;;;33.00;30.63;;;14.80;78.40;;;;;;4970910;28;20492;-72
2022/06/14 05:03:20;;;;;;;31.10;29.10;;;14.80;78.90;;;;;;4967916;28;20535;-73
2022/06/14 05:05:51;;;;;;;30.25;28.25;;;15.10;78.60;;;;;;4967312;28;20478;-70
2022/06/14 05:08:23;;;;;;;29.60;27.60;;;15.20;77.90;;;;;;4974577;28;20192;-68
2022/06/14 05:10:55;;;;;;;32.67;30.57;;;15.30;77.50;;;;;;4969859;28;20512;-68
2022/06/14 05:13:28;;;;;;;29.43;27.27;;;15.30;76.80;;;;;;4958491;28;20965;-68
2022/06/14 05:16:02;;;;;;;29.90;27.80;;;15.40;76.40;;;;;;4964143;28;20479;-69
2022/06/14 05:18:35;;;;;;;29.90;27.73;;;15.50;76.30;;;;;;4976483;28;20542;-69
2022/06/14 05:21:09;;;;;;;32.47;30.27;;;15.70;75.10;;;;;;4970317;28;20503;-70
2022/06/14 05:23:43;;;;;;;32.73;30.40;;;15.70;75.10;;;;;;4971783;28;20578;-70
2022/06/14 05:26:18;;;;;;;30.67;28.60;;;15.80;74.80;;;;;;4970097;28;20586;-71
2022/06/14 05:28:59;;;;;;;33.20;30.77;;;16.00;74.50;;;;;;4968748;28;20462;-70
2022/06/14 05:31:33;;;;;;;30.20;28.13;;;16.20;74.20;;;;;;4968129;28;20581;-72
2022/06/14 05:34:08;;;;;;;31.23;29.23;;;16.30;73.80;;;;;;4968889;28;20458;-71
2022/06/14 05:36:41;;;;;;;31.57;29.40;;;16.40;73.90;;;;;;4967551;28;20509;-71
2022/06/14 05:39:19;;;;;;;32.87;30.47;;;16.60;74.00;;;;;;4964024;28;20503;-71
2022/06/14 05:41:48;;;;;;;32.30;30.00;;;16.80;72.90;;;;;;4958925;28;20965;-71
2022/06/14 05:44:24;;;;;;;32.07;29.70;;;16.90;71.20;;;;;;4961838;28;20456;-70
2022/06/14 05:46:55;;;;;;;31.27;29.17;;;17.00;70.80;;;;;;4970018;28;20486;-71
2022/06/14 05:49:24;;;;;;;31.50;29.10;;;17.10;70.20;;;;;;4970699;28;20843;-70
2022/06/14 05:51:56;;;;;;;31.93;29.67;;;17.20;69.70;;;;;;4967448;28;20533;-71
2022/06/14 05:54:30;;;;;;;33.50;31.20;;;17.30;69.30;;;;;;4970488;28;20510;-72
2022/06/14 05:57:02;;;;;;;31.60;29.40;;;17.30;69.70;;;;;;4962751;28;20477;-71
2022/06/14 05:59:36;;;;;;;33.70;31.37;;;17.40;70.20;;;;;;4968296;28;21096;-71
2022/06/14 06:02:15;;;;;;;34.90;32.13;;;17.60;69.60;;;;;;4972174;28;20461;-71
2022/06/14 06:04:47;;;;;;;34.60;32.10;;;17.80;68.30;;;;;;4967562;28;20472;-75
2022/06/14 06:07:19;;;;;;;32.30;30.20;;;17.90;68.40;;;;;;4957468;28;20586;-73
2022/06/14 06:09:51;;;;;;;36.97;34.53;;;17.90;67.80;;;;;;4967518;28;20561;-76
2022/06/14 06:12:23;;;;;;;33.03;30.73;;;17.90;68.20;;;;;;4970716;28;20534;-73
2022/06/14 06:14:56;;;;;;;32.87;30.57;;;17.90;68.30;;;;;;4959498;28;20459;-71
2022/06/14 06:17:29;;;;;;;33.47;30.77;;;18.00;68.00;;;;;;4963404;28;21018;-72
2022/06/14 06:20:06;;;;;;;33.17;30.77;;;18.10;67.80;;;;;;4966500;28;20475;-71
2022/06/14 06:22:37;;;;;;;34.07;31.47;;;18.00;68.30;;;;;;4963788;28;20834;-69
2022/06/14 06:25:09;;;;;;;32.57;30.30;;;18.10;68.50;;;;;;4966158;28;20495;-69
2022/06/14 06:27:41;;;;;;;36.80;34.20;;;18.20;69.00;;;;;;4970117;28;20511;-69
2022/06/14 06:30:17;;;;;;;36.60;33.50;;;18.30;69.30;;;;;;4962043;28;20534;-70
2022/06/14 06:32:46;;;;;;;32.50;30.30;;;18.30;68.60;;;;;;4965058;28;20463;-72
2022/06/14 06:35:16;;;;;;;33.40;31.00;;;18.30;68.60;;;;;;4955617;28;20567;-69
2022/06/14 06:37:47;;;;;;;32.87;30.40;;;18.50;67.90;;;;;;4963158;28;20478;-75
2022/06/14 06:40:20;;;;;;;33.80;31.03;;;18.70;67.30;;;;;;4952020;28;20515;-71
2022/06/14 06:42:52;;;;;;;33.10;30.63;;;18.70;66.60;;;;;;4966203;28;21024;-69
2022/06/14 06:45:22;;;;;;;34.27;31.60;;;18.70;66.90;;;;;;4954250;28;20499;-71
2022/06/14 06:47:57;;;;;;;31.63;29.50;;;18.70;67.20;;;;;;4960526;28;21036;-71
2022/06/14 06:50:27;;;;;;;32.90;30.70;;;18.80;67.00;;;;;;4965591;28;20470;-71
2022/06/14 06:53:01;;;;;;;32.40;29.97;;;18.90;67.10;;;;;;4968363;28;20471;-71
2022/06/14 06:55:37;;;;;;;33.83;31.63;;;19.00;67.30;;;;;;4964364;28;20485;-71
2022/06/14 06:58:09;;;;;;;35.80;32.33;;;19.10;66.80;;;;;;4962772;28;20472;-70
2022/06/14 07:00:41;;;;;;;33.47;31.07;;;19.30;66.10;;;;;;4966349;28;20495;-70
2022/06/14 07:03:16;;;;;;;33.23;30.83;;;19.40;65.50;;;;;;4967954;28;20830;-71
2022/06/14 07:05:50;;;;;;;35.13;32.07;;;19.50;65.10;;;;;;4969830;28;20454;-72
2022/06/14 07:08:22;;;;;;;33.63;31.30;;;19.50;65.10;;;;;;4955259;28;20470;-69
2022/06/14 07:10:52;;;;;;;34.03;31.50;;;19.60;64.90;;;;;;4961676;28;20462;-71
2022/06/14 07:13:27;;;;;;;33.47;30.93;;;19.60;64.70;;;;;;4962026;28;20468;-71
2022/06/14 07:16:05;;;;;;;35.80;33.30;;;19.60;63.90;;;;;;4968458;28;20489;-71
2022/06/14 07:18:40;;;;;;;36.60;34.17;;;19.60;63.70;;;;;;4952625;28;20466;-71
2022/06/14 07:21:10;;;;;;;32.47;30.03;;;19.70;64.00;;;;;;4953449;28;20488;-69
2022/06/14 07:23:43;;;;;;;34.90;32.60;;;19.90;62.70;;;;;;4963763;28;20563;-69
2022/06/14 07:26:18;;;;;;;33.80;31.30;;;19.90;62.10;;;;;;4963935;28;20549;-70
2022/06/14 07:28:54;;;;;;;34.53;32.00;;;19.90;62.50;;;;;;4963100;28;20944;-69
2022/06/14 07:31:28;;;;;;;31.90;29.73;;;20.10;61.80;;;;;;4972775;28;20451;-69
2022/06/14 07:33:58;;;;;;;33.33;30.83;;;20.20;61.50;;;;;;4963708;28;20495;-69
2022/06/14 07:36:31;;;;;;;31.50;29.50;;;20.30;60.60;;;;;;4968958;28;20566;-69
2022/06/14 07:39:06;;;;;;;31.73;29.67;;;20.50;59.70;;;;;;4966380;28;20542;-69
2022/06/14 07:41:42;;;;;;;35.73;33.37;;;20.50;60.50;;;;;;4956653;28;21098;-69
2022/06/14 07:44:18;;;;;;;33.80;31.30;;;20.60;60.00;;;;;;4965817;28;20853;-69
2022/06/14 07:46:58;;;;;;;31.37;29.10;;;20.60;58.20;;;;;;4957784;28;20475;-69
2022/06/14 07:49:34;;;;;;;32.47;30.20;;;20.70;57.40;;;;;;4965692;28;20922;-70
2022/06/14 07:52:06;;;;;;;31.60;29.40;;;20.80;58.30;;;;;;4971972;28;20470;-71
2022/06/14 07:54:37;;;;;;;32.30;29.73;;;20.70;58.80;;;;;;4962874;28;20460;-71
2022/06/14 07:57:13;;;;;;;32.17;29.80;;;20.80;56.90;;;;;;4964937;28;20516;-71
2022/06/14 07:59:45;;;;;;;32.73;30.63;;;20.90;55.70;;;;;;4964947;28;20477;-71
2022/06/14 08:02:20;;;;;;;30.17;28.23;;;21.00;55.60;;;;;;4972318;28;20575;-69
2022/06/14 08:04:55;;;;;;;31.63;29.50;;;21.10;55.60;;;;;;4957256;28;20566;-71
2022/06/14 08:07:23;;;;;;;31.87;29.70;;;21.30;55.70;;;;;;4969843;28;20563;-72
2022/06/14 08:09:56;;;;;;;33.83;31.00;;;21.40;57.20;;;;;;4971572;28;20467;-70
2022/06/14 08:12:30;;;;;;;30.90;28.83;;;21.40;57.00;;;;;;4972015;28;20556;-69
2022/06/14 08:15:01;;;;;;;32.50;30.30;;;21.40;57.00;;;;;;4967898;28;20489;-75
2022/06/14 08:17:34;;;;;;;34.73;32.40;;;21.40;57.10;;;;;;4965351;28;20486;-71
2022/06/14 08:20:09;;;;;;;31.83;29.60;;;21.50;57.30;;;;;;4969713;28;20580;-71
2022/06/14 08:22:40;;;;;;;31.47;29.47;;;21.10;57.40;;;;;;4966373;28;20562;-73
2022/06/14 08:25:13;;;;;;;33.20;30.90;;;21.00;58.00;;;;;;4965742;28;20553;-69
2022/06/14 08:27:46;;;;;;;32.20;29.77;;;21.00;58.20;;;;;;4966408;28;20574;-69
2022/06/14 08:30:18;;;;;;;31.00;28.90;;;21.10;57.60;;;;;;4966525;28;20459;-69
2022/06/14 08:32:51;;;;;;;34.63;31.97;;;21.10;57.60;;;;;;4955113;28;20537;-69
2022/06/14 08:35:25;;;;;;;31.77;29.37;;;21.30;58.00;;;;;;4972081;28;21374;-69
2022/06/14 08:37:57;;;;;;;32.17;29.97;;;21.40;57.50;;;;;;4963217;28;21601;-69
2022/06/14 08:40:56;;;;;;;32.20;30.07;;;21.50;57.00;;;;;;4970847;28;20916;-69
2022/06/14 08:43:27;;;;;;;31.90;29.60;;;21.50;56.40;;;;;;4969301;28;20538;-69
2022/06/14 08:46:17;;;;;;;31.57;29.10;;;21.50;56.50;;;;;;4965708;28;20484;-69
2022/06/14 08:49:01;;;;;;;31.57;29.37;;;21.60;56.50;;;;;;4962478;28;21001;-69
2022/06/14 08:51:34;;;;;;;32.10;29.70;;;21.80;55.90;;;;;;4967213;28;20646;-69
2022/06/14 08:54:43;;;;;;;35.53;32.87;;;21.90;56.00;;;;;;4962734;28;20491;-69
2022/06/14 08:57:29;;;;;;;32.17;29.87;;;22.10;55.80;;;;;;4950476;28;20483;-69
2022/06/14 09:00:09;;;;;;;33.50;31.07;;;22.20;54.70;;;;;;4965774;28;20494;-69
2022/06/14 09:03:26;;;;;;;32.00;29.80;;;22.30;54.90;;;;;;4964676;28;20520;-69
2022/06/14 09:06:32;;;;;;;32.40;30.40;;;22.30;54.90;;;;;;4964066;28;20511;-69
2022/06/14 09:09:46;;;;;;;34.33;32.03;;;22.30;55.20;;;;;;4969188;28;20548;-69
2022/06/14 09:12:38;;;;;;;32.00;29.80;;;22.50;53.80;;;;;;4970319;28;20466;-69
2022/06/14 09:15:31;;;;;;;30.83;28.70;;;22.10;54.40;;;;;;4969941;28;20488;-69
2022/06/14 09:18:35;;;;;;;29.57;27.57;;;22.10;54.50;;;;;;4969582;28;21080;-69
2022/06/14 09:21:28;;;;;;;30.37;28.27;;;22.20;53.70;;;;;;4969253;28;20488;-69
2022/06/14 09:24:09;;;;;;;33.07;30.77;;;22.40;53.50;;;;;;4969924;28;20465;-69
2022/06/14 09:26:47;;;;;;;30.80;28.40;;;22.60;53.60;;;;;;4970738;28;20990;-70
2022/06/14 09:29:54;;;;;;;30.90;28.70;;;22.60;53.90;;;;;;4967611;28;20576;-69
2022/06/14 09:33:10;;;;;;;32.37;30.00;;;22.70;52.60;;;;;;4967036;28;20461;-72
2022/06/14 09:36:09;;;;;;;31.67;29.70;;;22.70;52.10;;;;;;4969144;28;20528;-73
2022/06/14 09:39:02;;;;;;;31.60;29.50;;;22.80;51.80;;;;;;4932632;28;20471;-73
2022/06/14 09:41:58;;;;;;;33.73;31.53;;;23.00;50.00;;;;;;4966705;28;20584;-71
2022/06/14 09:44:56;;;;;;;32.80;30.57;;;23.10;50.00;;;;;;4968568;28;20552;-71
2022/06/14 09:47:52;;;;;;;32.70;30.50;;;23.30;50.70;;;;;;4969968;28;20488;-71
2022/06/14 09:50:47;;;;;;;31.80;29.60;;;23.60;50.40;;;;;;4968491;28;20546;-71
2022/06/14 09:53:43;;;;;;;30.97;28.83;;;23.70;50.00;;;;;;4958318;28;20503;-71
2022/06/14 09:56:41;;;;;;;32.93;30.70;;;23.80;50.40;;;;;;4966965;28;20600;-71
2022/06/14 09:59:37;;;;;;;31.47;29.40;;;23.90;49.30;;;;;;4963900;28;20466;-73
2022/06/14 10:02:15;;;;;;;29.73;27.93;;;23.80;48.20;;;;;;4961935;28;20851;-71
2022/06/14 10:05:05;;;;;;;31.73;29.33;;;23.80;48.60;;;;;;4970137;28;20555;-71
2022/06/14 10:08:03;;;;;;;30.70;28.60;;;23.90;48.80;;;;;;4969174;28;20517;-73
2022/06/14 10:10:45;;;;;;;30.47;28.40;;;24.10;48.50;;;;;;4963742;28;20847;-72
2022/06/14 10:13:53;;;;;;;31.23;28.93;;;24.20;47.60;;;;;;4961289;28;20546;-71
2022/06/14 10:16:35;;;;;;;30.70;28.70;;;23.80;47.40;;;;;;4970092;28;20571;-71
2022/06/14 10:19:21;;;;;;;33.00;30.50;;;23.60;48.30;;;;;;4966176;28;22338;-72
2022/06/14 10:21:54;;;;;;;32.43;30.40;;;23.60;48.40;;;;;;4959188;28;20581;-70
2022/06/14 10:24:26;;;;;;;30.67;28.67;;;23.60;48.40;;;;;;4968963;28;20492;-70
2022/06/14 10:30:05;;;;;;;32.33;29.93;;;23.80;48.80;;;;;;4967913;28;20883;-69
2022/06/14 10:33:01;;;;;;;32.27;30.00;;;23.90;47.80;;;;;;4966951;28;20503;-69
2022/06/14 10:35:37;;;;;;;32.83;30.73;;;23.70;47.70;;;;;;4967355;28;20510;-69
2022/06/14 10:38:39;;;;;;;30.93;28.73;;;23.50;48.40;;;;;;4969673;28;20469;-69
2022/06/14 10:41:13;;;;;;;31.30;29.00;;;23.70;48.60;;;;;;4964336;28;20480;-69
2022/06/14 10:43:47;;;;;;;32.57;30.57;;;23.70;48.80;;;;;;4965017;28;20476;-69
2022/06/14 10:46:22;;;;;;;29.87;28.00;;;23.70;48.90;;;;;;4967835;28;20481;-69
2022/06/14 10:49:24;;;;;;;29.97;27.87;;;23.80;48.90;;;;;;4966631;28;20568;-69
2022/06/14 10:52:10;;;;;;;30.60;28.50;;;23.70;49.50;;;;;;4960342;28;20463;-74
2022/06/14 10:54:48;;;;;;;33.20;30.60;;;23.70;49.90;;;;;;4963719;28;20994;-70
2022/06/14 10:57:38;;;;;;;30.47;28.47;;;23.70;49.80;;;;;;4963578;28;20608;-71
2022/06/14 11:00:19;;;;;;;32.33;30.13;;;23.70;49.60;;;;;;4964700;28;20488;-71
2022/06/14 11:03:03;;;;;;;32.10;29.93;;;23.80;49.40;;;;;;4965131;28;20548;-72
2022/06/14 11:05:47;;;;;;;30.13;28.13;;;23.90;48.80;;;;;;4956336;28;20549;-74
2022/06/14 11:08:30;;;;;;;31.33;29.13;;;24.00;47.80;;;;;;4964609;28;20550;-73
2022/06/14 11:11:50;;;;;;;33.50;31.17;;;24.20;48.30;;;;;;4960701;28;20543;-72
2022/06/14 11:14:27;;;;;;;34.50;32.03;;;24.30;48.20;;;;;;4955905;28;20557;-73
2022/06/14 11:17:25;;;;;;;33.10;30.90;;;24.50;48.40;;;;;;4960832;28;20487;-71
2022/06/14 11:20:12;;;;;;;31.57;29.57;;;24.90;48.20;;;;;;4963702;28;20558;-72
2022/06/14 11:22:43;;;;;;;32.53;30.50;;;24.90;48.10;;;;;;4962464;28;20471;-72
2022/06/14 11:25:26;;;;;;;32.53;30.00;;;25.10;47.90;;;;;;4962253;28;20549;-74
2022/06/14 11:28:05;;;;;;;34.47;32.20;;;25.10;46.80;;;;;;4964936;28;20597;-74
2022/06/14 11:30:44;;;;;;;35.50;33.20;;;25.20;46.90;;;;;;4963773;28;20451;-71
2022/06/14 11:33:23;;;;;;;31.77;29.77;;;25.30;46.20;;;;;;4959493;28;20462;-71
2022/06/14 11:36:09;;;;;;;34.00;31.60;;;25.30;46.00;;;;;;4972938;28;20463;-72
2022/06/14 11:39:03;;;;;;;33.93;31.83;;;25.20;46.20;;;;;;4961358;28;20585;-74
2022/06/14 11:41:40;;;;;;;34.57;32.00;;;25.10;46.10;;;;;;4963876;28;20566;-72
2022/06/14 11:44:20;;;;;;;32.83;30.57;;;24.90;46.60;;;;;;4969542;28;20565;-71
2022/06/14 11:46:54;;;;;;;33.60;31.50;;;25.00;46.20;;;;;;4957353;28;20994;-70
2022/06/14 11:49:27;;;;;;;34.93;32.40;;;24.90;46.20;;;;;;4971141;28;21246;-70
2022/06/14 11:52:07;;;;;;;32.67;30.57;;;24.90;45.90;;;;;;4971854;28;20844;-71
2022/06/14 11:54:45;;;;;;;30.50;28.70;;;24.70;46.40;;;;;;4967024;28;20462;-71
2022/06/14 11:57:16;;;;;;;29.80;28.00;;;24.70;46.60;;;;;;4964580;28;20491;-71
2022/06/14 12:00:12;;;;;;;32.93;30.53;;;24.90;46.00;;;;;;4960646;28;20542;-71
2022/06/14 12:02:43;;;;;;;33.40;31.20;;;25.10;45.20;;;;;;4966361;28;20506;-71
2022/06/14 12:05:19;;;;;;;34.83;32.50;;;25.00;44.40;;;;;;4967143;28;20491;-71
2022/06/14 12:07:54;;;;;;;33.57;31.40;;;24.90;44.90;;;;;;4970422;28;20478;-72
2022/06/14 12:10:52;;;;;;;33.87;31.57;;;25.00;44.80;;;;;;4970591;28;21140;-71
2022/06/14 12:13:41;;;;;;;36.43;34.00;;;25.10;44.70;;;;;;4965709;28;20490;-73
2022/06/14 12:16:14;;;;;;;35.80;33.33;;;25.30;44.40;;;;;;4953380;28;20605;-76
2022/06/14 12:18:45;;;;;;;34.57;32.37;;;25.30;44.20;;;;;;4966075;28;21053;-72
2022/06/14 12:21:18;;;;;;;31.97;30.07;;;25.40;44.80;;;;;;4968681;28;20562;-73
2022/06/14 12:23:49;;;;;;;31.53;29.60;;;25.60;45.30;;;;;;4964350;28;20558;-73
2022/06/14 12:26:37;;;;;;;30.93;28.80;;;25.90;44.10;;;;;;4968028;28;20514;-73
2022/06/14 12:29:14;;;;;;;32.70;30.63;;;26.10;44.40;;;;;;4968981;28;20968;-73
2022/06/14 12:31:53;;;;;;;32.97;30.77;;;26.20;43.90;;;;;;4972915;28;20509;-72
2022/06/14 12:34:25;;;;;;;31.77;29.67;;;26.50;43.10;;;;;;4960734;28;20644;-71
2022/06/14 12:37:02;;;;;;;31.50;29.30;;;26.50;42.90;;;;;;4972455;28;20481;-71
2022/06/14 12:39:33;;;;;;;31.20;29.13;;;26.50;42.90;;;;;;4966010;28;20499;-74
2022/06/14 12:42:08;;;;;;;32.80;30.60;;;26.40;41.40;;;;;;4961195;28;20993;-72
2022/06/14 12:44:47;;;;;;;33.73;31.47;;;26.50;41.10;;;;;;4956667;28;20557;-71
2022/06/14 12:47:19;;;;;;;34.20;32.00;;;26.50;40.70;;;;;;4962626;28;20563;-71
2022/06/14 12:49:50;;;;;;;30.80;28.60;;;26.40;41.40;;;;;;4965309;28;20463;-71
2022/06/14 12:52:22;;;;;;;33.07;30.90;;;26.50;41.20;;;;;;4971680;28;20463;-73
2022/06/14 12:54:58;;;;;;;33.80;31.57;;;26.60;42.00;;;;;;4969119;28;20503;-71
2022/06/14 12:57:44;;;;;;;30.67;28.77;;;26.80;42.00;;;;;;4972310;28;20837;-71
2022/06/14 13:00:21;;;;;;;31.50;29.50;;;27.00;41.70;;;;;;4960164;28;20534;-71
2022/06/14 13:02:56;;;;;;;33.20;31.00;;;27.00;41.90;;;;;;4970486;28;20479;-71
2022/06/14 13:05:27;;;;;;;32.10;30.10;;;27.20;42.30;;;;;;4971707;28;21042;-71
2022/06/14 13:08:12;;;;;;;31.27;29.27;;;27.30;41.90;;;;;;4971149;28;20491;-71
2022/06/14 13:10:49;;;;;;;32.10;29.90;;;27.30;40.40;;;;;;4970404;28;21060;-71
2022/06/14 13:13:51;;;;;;;32.20;29.93;;;27.30;40.40;;;;;;4969289;28;20930;-71
2022/06/14 13:16:30;;;;;;;34.20;31.90;;;27.50;40.70;;;;;;4959902;28;20521;-71
2022/06/14 13:19:07;;;;;;;31.83;29.57;;;27.50;40.30;;;;;;4970905;28;20539;-74
2022/06/14 13:21:51;;;;;;;31.20;28.90;;;27.40;40.40;;;;;;4970066;28;20573;-71
2022/06/14 13:24:28;;;;;;;32.67;30.43;;;27.20;40.40;;;;;;4969647;28;21039;-72